sensor_id;sensor_type;location;lat;lon;timestamp;temperature;humidity
78694;SHT31;68029;51.978;5.646;2024-02-23T00:00:39;6.8;74.1
78694;SHT31;68029;51.978;5.646;2024-02-23T00:03:10;6.8;74.2
78694;SHT31;68029;51.978;5.646;2024-02-23T00:05:39;6.8;74.3
78694;SHT31;68029;51.978;5.646;2024-02-23T00:08:08;6.8;75.5
78694;SHT31;68029;51.978;5.646;2024-02-23T00:10:37;6.8;75.8
78694;SHT31;68029;51.978;5.646;2024-02-23T00:13:06;6.8;76.5
78694;SHT31;68029;51.978;5.646;2024-02-23T00:15:34;6.8;76.8
78694;SHT31;68029;51.978;5.646;2024-02-23T00:18:04;6.8;77.1
78694;SHT31;68029;51.978;5.646;2024-02-23T00:20:33;6.8;76.9
78694;SHT31;68029;51.978;5.646;2024-02-23T00:23:03;6.8;76.6
78694;SHT31;68029;51.978;5.646;2024-02-23T00:25:32;6.8;76.8
78694;SHT31;68029;51.978;5.646;2024-02-23T00:28:00;6.8;77.3
78694;SHT31;68029;51.978;5.646;2024-02-23T00:30:29;6.8;76.9
78694;SHT31;68029;51.978;5.646;2024-02-23T00:32:57;6.9;76.9
78694;SHT31;68029;51.978;5.646;2024-02-23T00:35:26;6.9;77.1
78694;SHT31;68029;51.978;5.646;2024-02-23T00:37:54;6.9;76.9
78694;SHT31;68029;51.978;5.646;2024-02-23T00:40:23;7.0;77.2
78694;SHT31;68029;51.978;5.646;2024-02-23T00:42:51;7.0;76.1
78694;SHT31;68029;51.978;5.646;2024-02-23T00:45:20;7.0;75.8
78694;SHT31;68029;51.978;5.646;2024-02-23T00:47:49;7.0;74.8
78694;SHT31;68029;51.978;5.646;2024-02-23T00:50:18;6.9;72.5
78694;SHT31;68029;51.978;5.646;2024-02-23T00:52:47;6.9;72.3
78694;SHT31;68029;51.978;5.646;2024-02-23T00:55:15;6.8;72.6
78694;SHT31;68029;51.978;5.646;2024-02-23T00:57:46;6.7;73.1
78694;SHT31;68029;51.978;5.646;2024-02-23T01:00:15;6.6;72.6
78694;SHT31;68029;51.978;5.646;2024-02-23T01:02:46;6.5;72.9
78694;SHT31;68029;51.978;5.646;2024-02-23T01:05:16;6.4;73.2
78694;SHT31;68029;51.978;5.646;2024-02-23T01:07:45;6.3;74.5
78694;SHT31;68029;51.978;5.646;2024-02-23T01:10:14;6.2;76.6
78694;SHT31;68029;51.978;5.646;2024-02-23T01:12:43;6.1;77.9
78694;SHT31;68029;51.978;5.646;2024-02-23T01:15:11;6.1;78.8
78694;SHT31;68029;51.978;5.646;2024-02-23T01:17:40;6.1;79.5
78694;SHT31;68029;51.978;5.646;2024-02-23T01:20:12;6.1;80.1
78694;SHT31;68029;51.978;5.646;2024-02-23T01:22:40;6.1;80.4
78694;SHT31;68029;51.978;5.646;2024-02-23T01:25:09;6.1;80.3
78694;SHT31;68029;51.978;5.646;2024-02-23T01:27:38;6.1;80.2
78694;SHT31;68029;51.978;5.646;2024-02-23T01:30:07;6.2;79.9
78694;SHT31;68029;51.978;5.646;2024-02-23T01:32:36;6.2;79.6
78694;SHT31;68029;51.978;5.646;2024-02-23T01:35:07;6.2;79.4
78694;SHT31;68029;51.978;5.646;2024-02-23T01:37:36;6.3;79.0
78694;SHT31;68029;51.978;5.646;2024-02-23T01:40:05;6.3;78.8
78694;SHT31;68029;51.978;5.646;2024-02-23T01:42:34;6.3;78.4
78694;SHT31;68029;51.978;5.646;2024-02-23T01:45:05;6.3;78.3
78694;SHT31;68029;51.978;5.646;2024-02-23T01:47:34;6.3;78.2
78694;SHT31;68029;51.978;5.646;2024-02-23T01:50:03;6.3;77.9
78694;SHT31;68029;51.978;5.646;2024-02-23T01:52:34;6.3;78.0
78694;SHT31;68029;51.978;5.646;2024-02-23T01:55:07;6.3;78.0
78694;SHT31;68029;51.978;5.646;2024-02-23T01:57:35;6.4;77.6
78694;SHT31;68029;51.978;5.646;2024-02-23T02:00:06;6.4;77.4
78694;SHT31;68029;51.978;5.646;2024-02-23T02:02:36;6.4;77.3
78694;SHT31;68029;51.978;5.646;2024-02-23T02:05:07;6.4;76.9
78694;SHT31;68029;51.978;5.646;2024-02-23T02:07:36;6.4;77.0
78694;SHT31;68029;51.978;5.646;2024-02-23T02:10:08;6.4;76.8
78694;SHT31;68029;51.978;5.646;2024-02-23T02:12:37;6.4;76.7
78694;SHT31;68029;51.978;5.646;2024-02-23T02:15:06;6.4;76.5
78694;SHT31;68029;51.978;5.646;2024-02-23T02:17:35;6.4;76.4
78694;SHT31;68029;51.978;5.646;2024-02-23T02:20:04;6.4;76.4
78694;SHT31;68029;51.978;5.646;2024-02-23T02:22:34;6.3;76.1
78694;SHT31;68029;51.978;5.646;2024-02-23T02:25:05;6.3;75.7
78694;SHT31;68029;51.978;5.646;2024-02-23T02:27:34;6.3;75.8
78694;SHT31;68029;51.978;5.646;2024-02-23T02:30:03;6.3;75.8
78694;SHT31;68029;51.978;5.646;2024-02-23T02:32:31;6.3;75.6
78694;SHT31;68029;51.978;5.646;2024-02-23T02:35:00;6.3;75.9
78694;SHT31;68029;51.978;5.646;2024-02-23T02:37:28;6.3;76.1
78694;SHT31;68029;51.978;5.646;2024-02-23T02:39:57;6.3;76.3
78694;SHT31;68029;51.978;5.646;2024-02-23T02:42:25;6.3;76.5
78694;SHT31;68029;51.978;5.646;2024-02-23T02:44:55;6.3;76.1
78694;SHT31;68029;51.978;5.646;2024-02-23T02:47:24;6.3;75.9
78694;SHT31;68029;51.978;5.646;2024-02-23T02:49:52;6.3;76.0
78694;SHT31;68029;51.978;5.646;2024-02-23T02:52:21;6.3;75.7
78694;SHT31;68029;51.978;5.646;2024-02-23T02:54:50;6.3;75.7
78694;SHT31;68029;51.978;5.646;2024-02-23T02:57:19;6.3;75.6
78694;SHT31;68029;51.978;5.646;2024-02-23T02:59:48;6.3;75.6
78694;SHT31;68029;51.978;5.646;2024-02-23T03:02:17;6.3;75.6
78694;SHT31;68029;51.978;5.646;2024-02-23T03:04:50;6.3;75.6
78694;SHT31;68029;51.978;5.646;2024-02-23T03:07:21;6.3;75.6
78694;SHT31;68029;51.978;5.646;2024-02-23T03:09:49;6.3;75.1
78694;SHT31;68029;51.978;5.646;2024-02-23T03:12:18;6.3;74.8
78694;SHT31;68029;51.978;5.646;2024-02-23T03:14:47;6.3;75.1
78694;SHT31;68029;51.978;5.646;2024-02-23T03:17:16;6.3;74.7
78694;SHT31;68029;51.978;5.646;2024-02-23T03:19:44;6.3;74.7
78694;SHT31;68029;51.978;5.646;2024-02-23T03:22:13;6.3;74.6
78694;SHT31;68029;51.978;5.646;2024-02-23T03:24:41;6.3;74.8
78694;SHT31;68029;51.978;5.646;2024-02-23T03:27:10;6.3;74.8
78694;SHT31;68029;51.978;5.646;2024-02-23T03:29:39;6.3;75.3
78694;SHT31;68029;51.978;5.646;2024-02-23T03:32:08;6.3;75.3
78694;SHT31;68029;51.978;5.646;2024-02-23T03:34:37;6.3;75.7
78694;SHT31;68029;51.978;5.646;2024-02-23T03:37:07;6.3;75.6
78694;SHT31;68029;51.978;5.646;2024-02-23T03:39:36;6.3;75.6
78694;SHT31;68029;51.978;5.646;2024-02-23T03:42:05;6.3;75.3
78694;SHT31;68029;51.978;5.646;2024-02-23T03:44:36;6.3;75.3
78694;SHT31;68029;51.978;5.646;2024-02-23T03:47:05;6.4;75.3
78694;SHT31;68029;51.978;5.646;2024-02-23T03:49:35;6.4;75.1
78694;SHT31;68029;51.978;5.646;2024-02-23T03:52:04;6.4;75.1
78694;SHT31;68029;51.978;5.646;2024-02-23T03:54:33;6.4;74.5
78694;SHT31;68029;51.978;5.646;2024-02-23T03:57:01;6.4;74.8
78694;SHT31;68029;51.978;5.646;2024-02-23T03:59:30;6.4;74.9
78694;SHT31;68029;51.978;5.646;2024-02-23T04:02:00;6.3;74.5
78694;SHT31;68029;51.978;5.646;2024-02-23T04:04:30;6.3;74.7
78694;SHT31;68029;51.978;5.646;2024-02-23T04:06:58;6.3;74.9
78694;SHT31;68029;51.978;5.646;2024-02-23T04:09:29;6.3;74.9
78694;SHT31;68029;51.978;5.646;2024-02-23T04:11:58;6.3;75.2
78694;SHT31;68029;51.978;5.646;2024-02-23T04:14:27;6.3;75.2
78694;SHT31;68029;51.978;5.646;2024-02-23T04:16:55;6.3;75.3
78694;SHT31;68029;51.978;5.646;2024-02-23T04:19:24;6.3;75.2
78694;SHT31;68029;51.978;5.646;2024-02-23T04:21:52;6.3;75.0
78694;SHT31;68029;51.978;5.646;2024-02-23T04:24:21;6.3;74.8
78694;SHT31;68029;51.978;5.646;2024-02-23T04:26:51;6.3;74.7
78694;SHT31;68029;51.978;5.646;2024-02-23T04:29:19;6.3;74.7
78694;SHT31;68029;51.978;5.646;2024-02-23T04:31:48;6.3;74.8
78694;SHT31;68029;51.978;5.646;2024-02-23T04:34:17;6.3;75.0
78694;SHT31;68029;51.978;5.646;2024-02-23T04:36:45;6.3;75.4
78694;SHT31;68029;51.978;5.646;2024-02-23T04:39:13;6.3;75.3
78694;SHT31;68029;51.978;5.646;2024-02-23T04:41:42;6.3;74.8
78694;SHT31;68029;51.978;5.646;2024-02-23T04:44:10;6.3;74.8
78694;SHT31;68029;51.978;5.646;2024-02-23T04:46:39;6.3;74.9
78694;SHT31;68029;51.978;5.646;2024-02-23T04:49:07;6.3;75.1
78694;SHT31;68029;51.978;5.646;2024-02-23T04:51:38;6.3;75.1
78694;SHT31;68029;51.978;5.646;2024-02-23T04:54:06;6.3;75.2
78694;SHT31;68029;51.978;5.646;2024-02-23T04:56:37;6.3;75.0
78694;SHT31;68029;51.978;5.646;2024-02-23T04:59:06;6.3;74.9
78694;SHT31;68029;51.978;5.646;2024-02-23T05:01:37;6.3;75.1
78694;SHT31;68029;51.978;5.646;2024-02-23T05:04:06;6.4;74.6
78694;SHT31;68029;51.978;5.646;2024-02-23T05:06:34;6.4;74.5
78694;SHT31;68029;51.978;5.646;2024-02-23T05:09:03;6.4;74.7
78694;SHT31;68029;51.978;5.646;2024-02-23T05:11:35;6.4;74.8
78694;SHT31;68029;51.978;5.646;2024-02-23T05:14:04;6.5;74.2
78694;SHT31;68029;51.978;5.646;2024-02-23T05:16:32;6.5;74.1
78694;SHT31;68029;51.978;5.646;2024-02-23T05:19:00;6.5;74.2
78694;SHT31;68029;51.978;5.646;2024-02-23T05:21:29;6.6;73.9
78694;SHT31;68029;51.978;5.646;2024-02-23T05:23:57;6.6;73.8
78694;SHT31;68029;51.978;5.646;2024-02-23T05:26:26;6.6;73.6
78694;SHT31;68029;51.978;5.646;2024-02-23T05:28:55;6.6;73.3
78694;SHT31;68029;51.978;5.646;2024-02-23T05:31:45;6.7;73.4
78694;SHT31;68029;51.978;5.646;2024-02-23T05:34:15;6.7;72.9
78694;SHT31;68029;51.978;5.646;2024-02-23T05:36:44;6.7;72.8
78694;SHT31;68029;51.978;5.646;2024-02-23T05:39:14;6.7;72.9
78694;SHT31;68029;51.978;5.646;2024-02-23T05:41:44;6.8;72.2
78694;SHT31;68029;51.978;5.646;2024-02-23T05:44:13;6.8;72.2
78694;SHT31;68029;51.978;5.646;2024-02-23T05:46:43;6.8;72.7
78694;SHT31;68029;51.978;5.646;2024-02-23T05:49:12;6.8;72.4
78694;SHT31;68029;51.978;5.646;2024-02-23T05:51:41;6.9;71.6
78694;SHT31;68029;51.978;5.646;2024-02-23T05:54:10;6.9;71.5
78694;SHT31;68029;51.978;5.646;2024-02-23T05:56:39;6.9;71.4
78694;SHT31;68029;51.978;5.646;2024-02-23T05:59:07;6.9;71.5
78694;SHT31;68029;51.978;5.646;2024-02-23T06:01:35;6.9;71.7
78694;SHT31;68029;51.978;5.646;2024-02-23T06:04:04;6.9;71.4
78694;SHT31;68029;51.978;5.646;2024-02-23T06:06:33;7.0;70.9
78694;SHT31;68029;51.978;5.646;2024-02-23T06:09:01;7.0;70.6
78694;SHT31;68029;51.978;5.646;2024-02-23T06:11:34;7.0;70.5
78694;SHT31;68029;51.978;5.646;2024-02-23T06:14:02;7.0;70.8
78694;SHT31;68029;51.978;5.646;2024-02-23T06:16:31;7.0;71.0
78694;SHT31;68029;51.978;5.646;2024-02-23T06:18:59;7.0;71.2
78694;SHT31;68029;51.978;5.646;2024-02-23T06:21:30;7.0;70.3
78694;SHT31;68029;51.978;5.646;2024-02-23T06:23:59;7.0;70.3
78694;SHT31;68029;51.978;5.646;2024-02-23T06:26:28;7.0;70.3
78694;SHT31;68029;51.978;5.646;2024-02-23T06:28:58;7.0;70.5
78694;SHT31;68029;51.978;5.646;2024-02-23T06:31:27;7.1;70.4
78694;SHT31;68029;51.978;5.646;2024-02-23T06:33:56;7.1;70.4
78694;SHT31;68029;51.978;5.646;2024-02-23T06:36:24;7.1;70.5
78694;SHT31;68029;51.978;5.646;2024-02-23T06:38:53;7.1;70.3
78694;SHT31;68029;51.978;5.646;2024-02-23T06:41:22;7.1;70.3
78694;SHT31;68029;51.978;5.646;2024-02-23T06:43:51;7.1;70.3
78694;SHT31;68029;51.978;5.646;2024-02-23T06:46:22;7.1;70.2
78694;SHT31;68029;51.978;5.646;2024-02-23T06:48:51;7.1;70.3
78694;SHT31;68029;51.978;5.646;2024-02-23T06:51:20;7.2;70.0
78694;SHT31;68029;51.978;5.646;2024-02-23T06:53:48;7.2;70.4
78694;SHT31;68029;51.978;5.646;2024-02-23T06:56:17;7.2;70.3
78694;SHT31;68029;51.978;5.646;2024-02-23T06:58:45;7.2;70.0
78694;SHT31;68029;51.978;5.646;2024-02-23T07:01:14;7.2;70.3
78694;SHT31;68029;51.978;5.646;2024-02-23T07:03:42;7.2;69.9
78694;SHT31;68029;51.978;5.646;2024-02-23T07:06:11;7.2;69.8
78694;SHT31;68029;51.978;5.646;2024-02-23T07:08:40;7.2;69.3
78694;SHT31;68029;51.978;5.646;2024-02-23T07:11:09;7.3;69.6
78694;SHT31;68029;51.978;5.646;2024-02-23T07:13:37;7.3;68.8
78694;SHT31;68029;51.978;5.646;2024-02-23T07:16:07;7.3;68.0
78694;SHT31;68029;51.978;5.646;2024-02-23T07:18:36;7.3;68.0
78694;SHT31;68029;51.978;5.646;2024-02-23T07:21:05;7.3;68.0
78694;SHT31;68029;51.978;5.646;2024-02-23T07:23:33;7.3;68.4
78694;SHT31;68029;51.978;5.646;2024-02-23T07:26:02;7.3;68.1
78694;SHT31;68029;51.978;5.646;2024-02-23T07:28:30;7.3;67.9
78694;SHT31;68029;51.978;5.646;2024-02-23T07:30:59;7.4;67.6
78694;SHT31;68029;51.978;5.646;2024-02-23T07:33:28;7.4;67.7
78694;SHT31;68029;51.978;5.646;2024-02-23T07:35:57;7.4;67.9
78694;SHT31;68029;51.978;5.646;2024-02-23T07:38:26;7.4;68.0
78694;SHT31;68029;51.978;5.646;2024-02-23T07:40:54;7.4;68.0
78694;SHT31;68029;51.978;5.646;2024-02-23T07:43:25;7.4;67.6
78694;SHT31;68029;51.978;5.646;2024-02-23T07:45:55;7.4;67.6
78694;SHT31;68029;51.978;5.646;2024-02-23T07:48:24;7.4;67.1
78694;SHT31;68029;51.978;5.646;2024-02-23T07:50:52;7.5;67.3
78694;SHT31;68029;51.978;5.646;2024-02-23T07:53:21;7.5;67.6
78694;SHT31;68029;51.978;5.646;2024-02-23T07:55:49;7.5;67.4
78694;SHT31;68029;51.978;5.646;2024-02-23T07:58:18;7.5;66.7
78694;SHT31;68029;51.978;5.646;2024-02-23T08:00:47;7.5;66.8
78694;SHT31;68029;51.978;5.646;2024-02-23T08:03:16;7.6;66.5
78694;SHT31;68029;51.978;5.646;2024-02-23T08:05:45;7.6;67.0
78694;SHT31;68029;51.978;5.646;2024-02-23T08:08:13;7.6;66.3
78694;SHT31;68029;51.978;5.646;2024-02-23T08:10:41;7.7;66.3
78694;SHT31;68029;51.978;5.646;2024-02-23T08:13:10;7.7;66.1
78694;SHT31;68029;51.978;5.646;2024-02-23T08:15:39;7.7;65.8
78694;SHT31;68029;51.978;5.646;2024-02-23T08:18:08;7.7;65.7
78694;SHT31;68029;51.978;5.646;2024-02-23T08:20:36;7.7;65.2
78694;SHT31;68029;51.978;5.646;2024-02-23T08:23:05;7.8;65.7
78694;SHT31;68029;51.978;5.646;2024-02-23T08:25:36;7.8;65.4
78694;SHT31;68029;51.978;5.646;2024-02-23T08:28:05;7.8;65.9
78694;SHT31;68029;51.978;5.646;2024-02-23T08:30:34;7.8;66.2
78694;SHT31;68029;51.978;5.646;2024-02-23T08:33:02;7.8;65.8
78694;SHT31;68029;51.978;5.646;2024-02-23T08:35:31;7.8;65.9
78694;SHT31;68029;51.978;5.646;2024-02-23T08:38:01;7.8;66.3
78694;SHT31;68029;51.978;5.646;2024-02-23T08:40:30;7.9;65.5
78694;SHT31;68029;51.978;5.646;2024-02-23T08:42:58;7.9;65.2
78694;SHT31;68029;51.978;5.646;2024-02-23T08:45:27;8.0;65.9
78694;SHT31;68029;51.978;5.646;2024-02-23T08:47:55;8.0;65.6
78694;SHT31;68029;51.978;5.646;2024-02-23T08:50:25;8.0;65.2
78694;SHT31;68029;51.978;5.646;2024-02-23T08:52:53;8.1;64.7
78694;SHT31;68029;51.978;5.646;2024-02-23T08:55:22;8.1;64.1
78694;SHT31;68029;51.978;5.646;2024-02-23T08:57:51;8.1;64.8
78694;SHT31;68029;51.978;5.646;2024-02-23T09:00:20;8.1;64.4
78694;SHT31;68029;51.978;5.646;2024-02-23T09:02:50;8.1;64.0
78694;SHT31;68029;51.978;5.646;2024-02-23T09:05:19;8.1;64.2
78694;SHT31;68029;51.978;5.646;2024-02-23T09:07:48;8.1;64.1
78694;SHT31;68029;51.978;5.646;2024-02-23T09:10:18;8.1;64.4
78694;SHT31;68029;51.978;5.646;2024-02-23T09:12:48;8.1;63.9
78694;SHT31;68029;51.978;5.646;2024-02-23T09:15:17;8.1;64.4
78694;SHT31;68029;51.978;5.646;2024-02-23T09:17:47;8.1;64.0
78694;SHT31;68029;51.978;5.646;2024-02-23T09:20:16;8.1;64.5
78694;SHT31;68029;51.978;5.646;2024-02-23T09:22:44;8.1;64.1
78694;SHT31;68029;51.978;5.646;2024-02-23T09:25:15;8.1;64.6
78694;SHT31;68029;51.978;5.646;2024-02-23T09:27:44;8.2;65.2
78694;SHT31;68029;51.978;5.646;2024-02-23T09:30:14;8.2;65.3
78694;SHT31;68029;51.978;5.646;2024-02-23T09:32:42;8.2;65.8
78694;SHT31;68029;51.978;5.646;2024-02-23T09:35:11;8.3;65.0
78694;SHT31;68029;51.978;5.646;2024-02-23T09:37:40;8.3;65.5
78694;SHT31;68029;51.978;5.646;2024-02-23T09:40:10;8.4;64.6
78694;SHT31;68029;51.978;5.646;2024-02-23T09:42:42;8.4;64.2
78694;SHT31;68029;51.978;5.646;2024-02-23T09:45:12;8.4;64.5
78694;SHT31;68029;51.978;5.646;2024-02-23T09:47:43;8.5;65.1
78694;SHT31;68029;51.978;5.646;2024-02-23T09:50:14;8.5;64.2
78694;SHT31;68029;51.978;5.646;2024-02-23T09:52:46;8.5;64.9
78694;SHT31;68029;51.978;5.646;2024-02-23T09:55:16;8.5;65.2
78694;SHT31;68029;51.978;5.646;2024-02-23T09:57:48;8.5;65.7
78694;SHT31;68029;51.978;5.646;2024-02-23T10:00:21;8.5;66.7
78694;SHT31;68029;51.978;5.646;2024-02-23T10:02:53;8.5;66.9
78694;SHT31;68029;51.978;5.646;2024-02-23T10:05:23;8.5;67.4
78694;SHT31;68029;51.978;5.646;2024-02-23T10:07:54;8.4;67.8
78694;SHT31;68029;51.978;5.646;2024-02-23T10:10:29;8.4;68.6
78694;SHT31;68029;51.978;5.646;2024-02-23T10:12:58;8.4;69.1
78694;SHT31;68029;51.978;5.646;2024-02-23T10:15:29;8.3;68.9
78694;SHT31;68029;51.978;5.646;2024-02-23T10:17:59;8.3;69.6
78694;SHT31;68029;51.978;5.646;2024-02-23T10:20:27;8.3;69.7
78694;SHT31;68029;51.978;5.646;2024-02-23T10:22:56;8.3;69.3
78694;SHT31;68029;51.978;5.646;2024-02-23T10:25:25;8.3;69.4
78694;SHT31;68029;51.978;5.646;2024-02-23T10:27:54;8.2;69.2
78694;SHT31;68029;51.978;5.646;2024-02-23T10:30:23;8.2;69.6
78694;SHT31;68029;51.978;5.646;2024-02-23T10:32:56;8.2;69.4
78694;SHT31;68029;51.978;5.646;2024-02-23T10:35:25;8.2;69.5
78694;SHT31;68029;51.978;5.646;2024-02-23T10:37:56;8.2;69.3
78694;SHT31;68029;51.978;5.646;2024-02-23T10:40:29;8.2;69.1
78694;SHT31;68029;51.978;5.646;2024-02-23T10:43:03;8.2;69.3
78694;SHT31;68029;51.978;5.646;2024-02-23T10:45:35;8.2;69.2
78694;SHT31;68029;51.978;5.646;2024-02-23T10:48:07;8.3;69.0
78694;SHT31;68029;51.978;5.646;2024-02-23T10:50:37;8.3;68.5
78694;SHT31;68029;51.978;5.646;2024-02-23T10:53:07;8.3;68.1
78694;SHT31;68029;51.978;5.646;2024-02-23T10:55:37;8.4;68.4
78694;SHT31;68029;51.978;5.646;2024-02-23T10:58:07;8.4;67.6
78694;SHT31;68029;51.978;5.646;2024-02-23T11:00:39;8.4;68.0
78694;SHT31;68029;51.978;5.646;2024-02-23T11:03:09;8.4;67.4
78694;SHT31;68029;51.978;5.646;2024-02-23T11:05:40;8.5;66.9
78694;SHT31;68029;51.978;5.646;2024-02-23T11:08:09;8.5;67.0
78694;SHT31;68029;51.978;5.646;2024-02-23T11:10:50;8.5;67.3
78694;SHT31;68029;51.978;5.646;2024-02-23T11:13:36;8.5;67.7
78694;SHT31;68029;51.978;5.646;2024-02-23T11:16:07;8.5;67.5
78694;SHT31;68029;51.978;5.646;2024-02-23T11:18:39;8.6;67.3
78694;SHT31;68029;51.978;5.646;2024-02-23T11:21:10;8.6;67.8
78694;SHT31;68029;51.978;5.646;2024-02-23T11:23:45;8.6;67.4
78694;SHT31;68029;51.978;5.646;2024-02-23T11:26:17;8.6;67.9
78694;SHT31;68029;51.978;5.646;2024-02-23T11:28:50;8.6;67.0
78694;SHT31;68029;51.978;5.646;2024-02-23T11:31:22;8.7;66.9
78694;SHT31;68029;51.978;5.646;2024-02-23T11:33:53;8.7;66.5
78694;SHT31;68029;51.978;5.646;2024-02-23T11:36:27;8.7;67.4
78694;SHT31;68029;51.978;5.646;2024-02-23T11:38:58;8.7;67.1
78694;SHT31;68029;51.978;5.646;2024-02-23T11:41:28;8.7;68.0
78694;SHT31;68029;51.978;5.646;2024-02-23T11:43:57;8.8;68.0
78694;SHT31;68029;51.978;5.646;2024-02-23T11:46:26;8.8;67.2
78694;SHT31;68029;51.978;5.646;2024-02-23T11:48:55;8.9;68.0
78694;SHT31;68029;51.978;5.646;2024-02-23T11:51:26;8.9;67.9
78694;SHT31;68029;51.978;5.646;2024-02-23T11:53:57;9.0;67.8
78694;SHT31;68029;51.978;5.646;2024-02-23T11:56:27;9.1;66.3
78694;SHT31;68029;51.978;5.646;2024-02-23T11:58:57;9.1;66.6
78694;SHT31;68029;51.978;5.646;2024-02-23T12:01:29;9.2;65.9
78694;SHT31;68029;51.978;5.646;2024-02-23T12:03:57;9.2;65.5
78694;SHT31;68029;51.978;5.646;2024-02-23T12:06:27;9.3;65.4
78694;SHT31;68029;51.978;5.646;2024-02-23T12:08:59;9.3;66.2
78694;SHT31;68029;51.978;5.646;2024-02-23T12:11:29;9.3;66.4
78694;SHT31;68029;51.978;5.646;2024-02-23T12:13:59;9.3;65.9
78694;SHT31;68029;51.978;5.646;2024-02-23T12:16:28;9.4;65.9
78694;SHT31;68029;51.978;5.646;2024-02-23T12:18:57;9.4;66.0
78694;SHT31;68029;51.978;5.646;2024-02-23T12:21:25;9.5;65.4
78694;SHT31;68029;51.978;5.646;2024-02-23T12:23:54;9.5;64.4
78694;SHT31;68029;51.978;5.646;2024-02-23T12:26:23;9.5;64.2
78694;SHT31;68029;51.978;5.646;2024-02-23T12:28:51;9.5;64.4
78694;SHT31;68029;51.978;5.646;2024-02-23T12:31:25;9.6;65.3
78694;SHT31;68029;51.978;5.646;2024-02-23T12:33:57;9.6;64.1
78694;SHT31;68029;51.978;5.646;2024-02-23T12:36:26;9.6;63.8
78694;SHT31;68029;51.978;5.646;2024-02-23T12:38:55;9.7;64.7
78694;SHT31;68029;51.978;5.646;2024-02-23T12:41:23;9.8;64.7
78694;SHT31;68029;51.978;5.646;2024-02-23T12:43:51;10.0;62.8
78694;SHT31;68029;51.978;5.646;2024-02-23T12:46:20;10.2;63.4
78694;SHT31;68029;51.978;5.646;2024-02-23T12:48:51;10.4;61.2
78694;SHT31;68029;51.978;5.646;2024-02-23T12:51:26;10.5;60.7
78694;SHT31;68029;51.978;5.646;2024-02-23T12:53:56;10.6;61.4
78694;SHT31;68029;51.978;5.646;2024-02-23T12:56:24;10.6;60.8
78694;SHT31;68029;51.978;5.646;2024-02-23T12:58:53;10.7;60.4
78694;SHT31;68029;51.978;5.646;2024-02-23T13:01:23;10.8;60.1
78694;SHT31;68029;51.978;5.646;2024-02-23T13:03:53;10.8;59.3
78694;SHT31;68029;51.978;5.646;2024-02-23T13:06:22;10.8;59.5
78694;SHT31;68029;51.978;5.646;2024-02-23T13:08:50;10.9;59.0
78694;SHT31;68029;51.978;5.646;2024-02-23T13:11:19;10.9;59.4
78694;SHT31;68029;51.978;5.646;2024-02-23T13:13:47;10.9;60.1
78694;SHT31;68029;51.978;5.646;2024-02-23T13:16:16;10.9;59.8
78694;SHT31;68029;51.978;5.646;2024-02-23T13:18:45;10.9;60.0
78694;SHT31;68029;51.978;5.646;2024-02-23T13:21:15;10.9;59.0
78694;SHT31;68029;51.978;5.646;2024-02-23T13:23:43;10.9;58.8
78694;SHT31;68029;51.978;5.646;2024-02-23T13:26:12;10.8;58.1
78694;SHT31;68029;51.978;5.646;2024-02-23T13:28:44;10.8;59.1
78694;SHT31;68029;51.978;5.646;2024-02-23T13:31:12;10.8;60.1
78694;SHT31;68029;51.978;5.646;2024-02-23T13:33:43;10.8;59.5
78694;SHT31;68029;51.978;5.646;2024-02-23T13:36:12;10.8;59.3
78694;SHT31;68029;51.978;5.646;2024-02-23T13:38:40;10.8;57.8
78694;SHT31;68029;51.978;5.646;2024-02-23T13:41:09;10.8;58.5
78694;SHT31;68029;51.978;5.646;2024-02-23T13:43:38;10.8;58.1
78694;SHT31;68029;51.978;5.646;2024-02-23T13:46:06;10.8;58.1
78694;SHT31;68029;51.978;5.646;2024-02-23T13:48:35;10.8;58.6
78694;SHT31;68029;51.978;5.646;2024-02-23T13:51:05;10.8;57.9
78694;SHT31;68029;51.978;5.646;2024-02-23T13:53:36;10.8;57.2
78694;SHT31;68029;51.978;5.646;2024-02-23T13:56:06;10.8;57.9
78694;SHT31;68029;51.978;5.646;2024-02-23T13:58:35;10.8;57.3
78694;SHT31;68029;51.978;5.646;2024-02-23T14:01:03;10.8;58.3
78694;SHT31;68029;51.978;5.646;2024-02-23T14:03:32;10.9;58.9
78694;SHT31;68029;51.978;5.646;2024-02-23T14:06:01;11.1;58.6
78694;SHT31;68029;51.978;5.646;2024-02-23T14:08:29;11.4;56.6
78694;SHT31;68029;51.978;5.646;2024-02-23T14:11:00;11.6;56.0
78694;SHT31;68029;51.978;5.646;2024-02-23T14:13:30;11.7;56.0
78694;SHT31;68029;51.978;5.646;2024-02-23T14:15:58;11.7;55.4
78694;SHT31;68029;51.978;5.646;2024-02-23T14:18:27;11.7;55.0
78694;SHT31;68029;51.978;5.646;2024-02-23T14:20:56;11.7;55.2
78694;SHT31;68029;51.978;5.646;2024-02-23T14:23:24;11.6;55.5
78694;SHT31;68029;51.978;5.646;2024-02-23T14:25:53;11.5;55.8
78694;SHT31;68029;51.978;5.646;2024-02-23T14:28:21;11.4;55.8
78694;SHT31;68029;51.978;5.646;2024-02-23T14:30:50;11.4;56.4
78694;SHT31;68029;51.978;5.646;2024-02-23T14:33:19;11.4;57.2
78694;SHT31;68029;51.978;5.646;2024-02-23T14:35:49;11.5;56.8
78694;SHT31;68029;51.978;5.646;2024-02-23T14:38:17;11.5;55.6
78694;SHT31;68029;51.978;5.646;2024-02-23T14:40:48;11.5;54.9
78694;SHT31;68029;51.978;5.646;2024-02-23T14:43:19;11.5;55.6
78694;SHT31;68029;51.978;5.646;2024-02-23T14:45:47;11.4;55.6
78694;SHT31;68029;51.978;5.646;2024-02-23T14:48:18;11.4;56.1
78694;SHT31;68029;51.978;5.646;2024-02-23T14:50:48;11.3;57.2
78694;SHT31;68029;51.978;5.646;2024-02-23T14:53:17;11.3;57.5
78694;SHT31;68029;51.978;5.646;2024-02-23T14:55:46;11.3;58.3
78694;SHT31;68029;51.978;5.646;2024-02-23T14:58:15;11.2;58.9
78694;SHT31;68029;51.978;5.646;2024-02-23T15:00:44;11.2;59.0
78694;SHT31;68029;51.978;5.646;2024-02-23T15:03:13;11.1;59.4
78694;SHT31;68029;51.978;5.646;2024-02-23T15:05:42;11.0;60.2
78694;SHT31;68029;51.978;5.646;2024-02-23T15:08:13;11.0;60.2
78694;SHT31;68029;51.978;5.646;2024-02-23T15:10:41;10.9;60.7
78694;SHT31;68029;51.978;5.646;2024-02-23T15:13:10;10.8;60.6
78694;SHT31;68029;51.978;5.646;2024-02-23T15:15:39;10.7;60.6
78694;SHT31;68029;51.978;5.646;2024-02-23T15:18:08;10.6;61.2
78694;SHT31;68029;51.978;5.646;2024-02-23T15:20:37;10.5;61.7
78694;SHT31;68029;51.978;5.646;2024-02-23T15:23:06;10.4;63.1
78694;SHT31;68029;51.978;5.646;2024-02-23T15:25:34;10.3;64.9
78694;SHT31;68029;51.978;5.646;2024-02-23T15:28:03;10.2;66.1
78694;SHT31;68029;51.978;5.646;2024-02-23T15:30:33;10.0;67.6
78694;SHT31;68029;51.978;5.646;2024-02-23T15:33:02;9.9;69.4
78694;SHT31;68029;51.978;5.646;2024-02-23T15:35:32;9.9;69.6
78694;SHT31;68029;51.978;5.646;2024-02-23T15:38:01;10.1;70.3
78694;SHT31;68029;51.978;5.646;2024-02-23T15:40:29;10.4;69.0
78694;SHT31;68029;51.978;5.646;2024-02-23T15:42:58;10.9;67.0
78694;SHT31;68029;51.978;5.646;2024-02-23T15:45:27;11.2;65.0
78694;SHT31;68029;51.978;5.646;2024-02-23T15:47:55;11.3;63.8
78694;SHT31;68029;51.978;5.646;2024-02-23T15:50:24;11.3;63.9
78694;SHT31;68029;51.978;5.646;2024-02-23T15:52:55;11.2;63.9
78694;SHT31;68029;51.978;5.646;2024-02-23T15:55:23;11.1;63.5
78694;SHT31;68029;51.978;5.646;2024-02-23T15:57:52;10.9;63.6
78694;SHT31;68029;51.978;5.646;2024-02-23T16:00:23;10.7;64.1
78694;SHT31;68029;51.978;5.646;2024-02-23T16:02:51;10.6;64.5
78694;SHT31;68029;51.978;5.646;2024-02-23T16:05:20;10.5;64.2
78694;SHT31;68029;51.978;5.646;2024-02-23T16:07:49;10.4;64.3
78694;SHT31;68029;51.978;5.646;2024-02-23T16:10:18;10.4;64.9
78694;SHT31;68029;51.978;5.646;2024-02-23T16:12:49;10.3;65.1
78694;SHT31;68029;51.978;5.646;2024-02-23T16:15:19;10.2;66.0
78694;SHT31;68029;51.978;5.646;2024-02-23T16:17:47;10.1;67.1
78694;SHT31;68029;51.978;5.646;2024-02-23T16:20:16;10.0;68.0
78694;SHT31;68029;51.978;5.646;2024-02-23T16:22:45;9.9;67.5
78694;SHT31;68029;51.978;5.646;2024-02-23T16:25:14;9.8;67.5
78694;SHT31;68029;51.978;5.646;2024-02-23T16:27:43;9.6;68.2